createdAt,value
2023-01-05T00:01:54.675Z,11.26
2023-01-05T00:04:22.653Z,11.31
2023-01-05T00:06:49.848Z,11.32
2023-01-05T00:09:19.273Z,11.40
2023-01-05T00:12:05.225Z,11.42
2023-01-05T00:14:52.737Z,11.48
2023-01-05T00:17:43.012Z,11.54
2023-01-05T00:20:40.169Z,11.52
2023-01-05T00:23:08.784Z,11.53
2023-01-05T00:25:41.172Z,11.56
2023-01-05T00:28:09.021Z,11.53
2023-01-05T00:30:41.788Z,11.50
2023-01-05T00:33:15.208Z,11.48
2023-01-05T00:35:42.920Z,11.45
2023-01-05T00:38:10.569Z,11.43
2023-01-05T00:40:38.897Z,11.38
2023-01-05T00:43:06.136Z,11.42
2023-01-05T00:45:33.436Z,11.46
2023-01-05T00:48:00.472Z,11.50
2023-01-05T00:50:27.822Z,11.55
2023-01-05T00:52:55.177Z,11.58
2023-01-05T00:55:22.309Z,11.63
2023-01-05T00:57:49.948Z,11.66
2023-01-05T01:00:19.857Z,11.67
2023-01-05T01:02:47.871Z,11.68
2023-01-05T01:05:15.416Z,11.64
2023-01-05T01:07:42.789Z,11.65
2023-01-05T01:10:11.602Z,11.67
2023-01-05T01:12:38.738Z,11.69
2023-01-05T01:15:07.039Z,11.68
2023-01-05T01:17:35.513Z,11.75
2023-01-05T01:20:02.845Z,11.79
2023-01-05T01:22:29.897Z,11.79
2023-01-05T01:24:57.150Z,11.81
2023-01-05T01:27:24.446Z,11.86
2023-01-05T01:29:51.861Z,11.90
2023-01-05T01:32:19.368Z,11.87
2023-01-05T01:34:46.419Z,11.89
2023-01-05T01:37:13.791Z,11.92
2023-01-05T01:39:46.352Z,11.96
2023-01-05T01:42:16.548Z,11.94
2023-01-05T01:44:53.028Z,11.97
2023-01-05T01:47:35.545Z,12.01
2023-01-05T01:50:19.768Z,12.01
2023-01-05T01:52:51.232Z,12.00
2023-01-05T01:55:19.579Z,12.00
2023-01-05T01:57:49.168Z,12.00
2023-01-05T02:00:18.598Z,12.02
2023-01-05T02:02:55.913Z,11.99
2023-01-05T02:05:31.234Z,11.95
2023-01-05T02:07:58.818Z,11.96
2023-01-05T02:11:04.626Z,11.99
2023-01-05T02:14:15.017Z,11.97
2023-01-05T02:17:34.743Z,11.93
2023-01-05T02:20:43.535Z,11.88
2023-01-05T02:24:15.847Z,11.81
2023-01-05T02:26:57.754Z,11.81
2023-01-05T02:30:14.409Z,11.72
2023-01-05T02:33:01.359Z,11.67
2023-01-05T02:35:59.360Z,11.61
2023-01-05T02:38:49.780Z,11.58
2023-01-05T02:41:23.554Z,11.58
2023-01-05T02:43:51.010Z,11.60
2023-01-05T02:46:18.514Z,11.60
2023-01-05T02:48:49.061Z,11.64
2023-01-05T02:51:23.806Z,11.69
2023-01-05T02:54:03.736Z,11.67
2023-01-05T02:56:44.766Z,11.68
2023-01-05T02:59:24.035Z,11.67
2023-01-05T03:02:02.812Z,11.62
2023-01-05T03:04:45.196Z,11.61
2023-01-05T03:07:18.145Z,11.62
2023-01-05T03:09:46.616Z,11.62
2023-01-05T03:12:46.812Z,11.63
2023-01-05T03:15:23.877Z,11.61
2023-01-05T03:17:58.249Z,11.61
2023-01-05T03:20:31.365Z,11.66
2023-01-05T03:23:19.450Z,11.70
2023-01-05T03:26:06.512Z,11.72
2023-01-05T03:29:01.123Z,11.80
2023-01-05T03:31:55.319Z,11.83
2023-01-05T03:34:57.888Z,11.91
2023-01-05T03:37:51.252Z,11.95
2023-01-05T03:40:29.813Z,11.96
2023-01-05T03:42:57.499Z,12.02
2023-01-05T03:45:42.696Z,12.06
2023-01-05T03:48:15.502Z,12.07
2023-01-05T03:50:42.902Z,12.10
2023-01-05T03:53:13.817Z,12.12
2023-01-05T03:55:43.122Z,12.18
2023-01-05T03:58:10.662Z,12.20
2023-01-05T04:00:42.609Z,12.19
2023-01-05T04:03:12.442Z,12.19
2023-01-05T04:05:39.931Z,12.23
2023-01-05T04:08:07.865Z,12.25
2023-01-05T04:10:36.279Z,12.27
2023-01-05T04:13:03.583Z,12.30
2023-01-05T04:15:31.225Z,12.36
2023-01-05T04:17:59.544Z,12.37
2023-01-05T04:20:26.616Z,12.43
2023-01-05T04:22:53.599Z,12.43
2023-01-05T04:25:23.019Z,12.44
2023-01-05T04:27:50.203Z,12.42
2023-01-05T04:30:18.450Z,12.38
2023-01-05T04:32:45.493Z,12.38
2023-01-05T04:35:15.694Z,12.38
2023-01-05T04:37:45.005Z,12.35
2023-01-05T04:40:13.532Z,12.38
2023-01-05T04:42:51.498Z,12.35
2023-01-05T04:45:18.827Z,12.38
2023-01-05T04:47:46.158Z,12.42
2023-01-05T04:50:17.883Z,12.40
2023-01-05T04:52:46.000Z,12.33
2023-01-05T04:55:13.219Z,12.36
2023-01-05T04:57:41.389Z,12.32
2023-01-05T05:00:12.753Z,12.35
2023-01-05T05:02:40.029Z,12.30
2023-01-05T05:05:09.605Z,12.30
2023-01-05T05:07:38.897Z,12.27
2023-01-05T05:10:09.728Z,12.29
2023-01-05T05:12:38.607Z,12.32
2023-01-05T05:15:07.220Z,12.31
2023-01-05T05:17:34.435Z,12.33
2023-01-05T05:20:03.369Z,12.33
2023-01-05T05:22:30.735Z,12.34
2023-01-05T05:25:00.399Z,12.41
2023-01-05T05:27:27.692Z,12.37
2023-01-05T05:29:54.803Z,12.41
2023-01-05T05:32:21.786Z,12.46
2023-01-05T05:34:48.816Z,12.49
2023-01-05T05:37:15.700Z,12.49
2023-01-05T05:39:42.809Z,12.51
2023-01-05T05:42:09.941Z,12.55
2023-01-05T05:44:36.900Z,12.55
2023-01-05T05:47:03.971Z,12.61
2023-01-05T05:49:31.322Z,12.59
2023-01-05T05:51:58.352Z,12.57
2023-01-05T05:54:25.337Z,12.61
2023-01-05T05:56:52.439Z,12.62
2023-01-05T05:59:19.832Z,12.60
2023-01-05T06:01:47.030Z,12.57
2023-01-05T06:04:14.230Z,12.56
2023-01-05T06:06:41.518Z,12.55
2023-01-05T06:09:08.522Z,12.52
2023-01-05T06:11:35.913Z,12.48
2023-01-05T06:14:03.253Z,12.43
2023-01-05T06:16:30.419Z,12.33
2023-01-05T06:18:58.093Z,12.26
2023-01-05T06:21:25.291Z,12.22
2023-01-05T06:23:52.307Z,12.18
2023-01-05T06:26:20.043Z,12.16
2023-01-05T06:28:47.257Z,12.15
2023-01-05T06:31:14.542Z,12.15
2023-01-05T06:33:41.859Z,12.18
2023-01-05T06:36:09.178Z,12.13
2023-01-05T06:38:36.158Z,12.12
2023-01-05T06:41:03.251Z,12.11
2023-01-05T06:43:30.988Z,12.10
2023-01-05T06:45:59.004Z,12.11
2023-01-05T06:48:26.162Z,12.09
2023-01-05T06:50:53.246Z,12.13
2023-01-05T06:53:20.286Z,11.98
2023-01-05T06:55:47.433Z,11.88
2023-01-05T06:58:14.520Z,11.77
2023-01-05T07:00:41.801Z,11.74
2023-01-05T07:03:13.665Z,11.64
2023-01-05T07:05:41.609Z,11.56
2023-01-05T07:08:08.660Z,11.51
2023-01-05T07:10:35.675Z,11.47
2023-01-05T07:13:02.720Z,11.47
2023-01-05T07:15:30.022Z,11.44
2023-01-05T07:17:56.928Z,11.44
2023-01-05T07:20:23.879Z,11.41
2023-01-05T07:22:50.811Z,11.42
2023-01-05T07:25:18.293Z,11.45
2023-01-05T07:27:50.796Z,11.47
2023-01-05T07:30:18.600Z,11.44
2023-01-05T07:32:45.912Z,11.49
2023-01-05T07:35:13.273Z,11.49
2023-01-05T07:37:40.456Z,11.51
2023-01-05T07:40:08.493Z,11.49
2023-01-05T07:42:35.761Z,11.49
2023-01-05T07:45:04.901Z,11.52
2023-01-05T07:47:32.115Z,11.48
2023-01-05T07:50:00.040Z,11.46
2023-01-05T07:52:30.765Z,11.46
2023-01-05T07:54:58.416Z,11.42
2023-01-05T07:57:26.117Z,11.41
2023-01-05T07:59:56.271Z,11.42
2023-01-05T08:02:24.115Z,11.48
2023-01-05T08:04:51.842Z,11.49
2023-01-05T08:07:19.349Z,11.53
2023-01-05T08:10:05.642Z,11.56
2023-01-05T08:12:32.808Z,11.57
2023-01-05T08:15:00.140Z,11.57
2023-01-05T08:17:27.241Z,11.56
2023-01-05T08:19:54.196Z,11.57
2023-01-05T08:22:21.442Z,11.60
2023-01-05T08:24:48.490Z,11.61
2023-01-05T08:27:15.703Z,11.65
2023-01-05T08:29:43.250Z,11.66
2023-01-05T08:32:10.743Z,11.66
2023-01-05T08:34:38.597Z,11.66
2023-01-05T08:37:05.806Z,11.59
2023-01-05T08:39:35.229Z,11.60
2023-01-05T08:42:03.123Z,11.48
2023-01-05T08:46:58.106Z,11.15
2023-01-05T08:49:25.370Z,11.10
2023-01-05T08:51:53.067Z,10.97
2023-01-05T08:54:20.250Z,10.82
2023-01-05T08:56:50.585Z,10.70
2023-01-05T08:59:17.871Z,10.59
2023-01-05T09:01:45.713Z,10.52
2023-01-05T09:04:13.244Z,10.44
2023-01-05T09:06:41.774Z,10.38
2023-01-05T09:09:09.145Z,10.34
2023-01-05T09:11:36.311Z,10.34
2023-01-05T09:14:06.132Z,10.35
2023-01-05T09:17:06.331Z,10.30
2023-01-05T09:19:22.141Z,10.20
2023-01-05T09:21:49.485Z,10.08
2023-01-05T09:24:16.604Z,10.01
2023-01-05T09:26:44.616Z,9.91
2023-01-05T09:29:13.161Z,9.83
2023-01-05T09:31:41.529Z,9.76
2023-01-05T09:34:09.642Z,9.69
2023-01-05T09:36:38.935Z,9.66
2023-01-05T09:39:06.656Z,9.58
2023-01-05T09:41:45.052Z,9.55
2023-01-05T09:44:37.799Z,9.56
2023-01-05T09:47:35.279Z,9.57
2023-01-05T09:50:06.052Z,9.52
2023-01-05T09:52:38.041Z,9.44
2023-01-05T09:55:17.903Z,9.45
2023-01-05T09:58:05.796Z,9.48
2023-01-05T10:00:33.803Z,9.52
2023-01-05T10:03:29.260Z,9.60
2023-01-05T10:06:01.216Z,9.66
2023-01-05T10:08:38.135Z,9.67
2023-01-05T10:11:49.969Z,9.70
2023-01-05T10:14:30.942Z,9.78
2023-01-05T10:17:30.597Z,9.83
2023-01-05T10:19:53.150Z,9.81
2023-01-05T10:22:58.394Z,9.85
2023-01-05T10:25:34.348Z,9.82
2023-01-05T10:28:22.067Z,9.80
2023-01-05T10:31:00.231Z,9.82
2023-01-05T10:33:56.976Z,9.83
2023-01-05T10:37:07.523Z,9.83
2023-01-05T10:40:18.844Z,9.80
2023-01-05T10:43:17.469Z,9.82
2023-01-05T10:46:03.459Z,9.85
2023-01-05T10:48:35.830Z,9.83
2023-01-05T10:51:04.988Z,9.84
2023-01-05T10:53:36.498Z,9.90
2023-01-05T10:56:28.624Z,9.96
2023-01-05T10:59:15.257Z,9.93
2023-01-05T11:01:47.336Z,9.94
2023-01-05T11:04:34.839Z,9.97
2023-01-05T11:07:07.288Z,9.99
2023-01-05T11:09:49.135Z,9.98
2023-01-05T11:12:25.411Z,9.97
2023-01-05T11:14:59.014Z,9.96
2023-01-05T11:17:29.360Z,10.01
2023-01-05T11:19:58.467Z,9.99
2023-01-05T11:22:30.116Z,10.01
2023-01-05T11:25:18.793Z,10.01
2023-01-05T11:27:49.030Z,10.03
2023-01-05T11:30:24.532Z,10.07
2023-01-05T11:32:51.770Z,10.15
2023-01-05T11:35:24.405Z,10.14
2023-01-05T11:37:51.733Z,10.13
2023-01-05T11:40:21.937Z,10.17
2023-01-05T11:42:49.384Z,10.16
2023-01-05T11:45:38.786Z,10.19
2023-01-05T11:48:08.726Z,10.23
2023-01-05T11:50:49.779Z,10.27
2023-01-05T11:53:34.473Z,10.34
2023-01-05T11:56:24.991Z,10.43
2023-01-05T11:58:55.394Z,10.47
2023-01-05T12:01:54.149Z,10.53
2023-01-05T12:05:17.772Z,10.61
2023-01-05T12:07:55.766Z,10.75
2023-01-05T12:10:28.607Z,10.89
2023-01-05T12:13:16.344Z,11.01
2023-01-05T12:16:19.319Z,11.13
2023-01-05T12:19:42.696Z,11.21
2023-01-05T12:22:36.725Z,11.26
2023-01-05T12:25:44.871Z,11.21
2023-01-05T12:28:43.820Z,11.13
2023-01-05T12:35:14.779Z,11.06
2023-01-05T12:38:35.932Z,10.96
2023-01-05T12:41:55.435Z,10.88
2023-01-05T12:44:56.045Z,10.75
2023-01-05T12:47:58.688Z,10.63
2023-01-05T12:50:25.520Z,10.58
2023-01-05T12:53:19.416Z,10.56
2023-01-05T12:55:51.262Z,10.54
2023-01-05T12:58:31.900Z,10.56
2023-01-05T13:01:01.178Z,10.59
2023-01-05T13:03:32.160Z,10.64
2023-01-05T13:06:10.516Z,10.61
2023-01-05T13:08:53.749Z,10.53
2023-01-05T13:11:47.143Z,10.44
2023-01-05T13:14:21.366Z,10.46
2023-01-05T13:17:17.728Z,10.69
2023-01-05T13:19:49.283Z,11.09
2023-01-05T13:22:39.320Z,11.52
2023-01-05T13:25:23.008Z,12.04
2023-01-05T13:27:51.172Z,12.45
2023-01-05T13:30:29.811Z,12.75
2023-01-05T13:33:24.633Z,13.16
2023-01-05T13:36:21.737Z,13.47
2023-01-05T13:39:29.987Z,13.45
2023-01-05T13:42:42.413Z,13.22
2023-01-05T13:45:46.793Z,13.10
2023-01-05T13:49:11.089Z,12.94
2023-01-05T13:52:42.790Z,12.66
2023-01-05T13:55:25.083Z,12.45
2023-01-05T13:57:55.575Z,12.40
2023-01-05T14:00:34.000Z,12.33
2023-01-05T14:03:27.454Z,12.19
2023-01-05T14:06:01.253Z,12.13
2023-01-05T14:08:38.833Z,12.06
2023-01-05T14:11:12.011Z,11.94
2023-01-05T14:13:50.892Z,11.88
2023-01-05T14:16:39.187Z,11.81
2023-01-05T14:19:21.504Z,11.79
2023-01-05T14:21:51.421Z,11.77
2023-01-05T14:24:30.782Z,11.75
2023-01-05T14:27:07.513Z,11.69
2023-01-05T14:29:47.096Z,11.59
2023-01-05T14:32:37.537Z,11.44
2023-01-05T14:35:30.695Z,11.32
2023-01-05T14:38:06.233Z,11.19
2023-01-05T14:40:55.476Z,11.14
2023-01-05T14:43:34.323Z,11.12
2023-01-05T14:46:14.892Z,11.09
2023-01-05T14:48:57.782Z,11.09
2023-01-05T14:51:29.738Z,11.07
2023-01-05T14:54:05.550Z,11.08
2023-01-05T14:56:36.421Z,11.01
2023-01-05T14:59:25.389Z,10.83
2023-01-05T15:02:17.092Z,10.71
2023-01-05T15:04:44.829Z,10.60
2023-01-05T15:07:32.632Z,10.49
2023-01-05T15:10:34.030Z,10.35
2023-01-05T15:14:19.722Z,10.21
2023-01-05T15:16:57.773Z,10.08
2023-01-05T15:19:59.820Z,9.99
2023-01-05T15:23:00.534Z,9.92
2023-01-05T15:26:17.252Z,9.89
2023-01-05T15:29:27.880Z,9.88
2023-01-05T15:32:16.460Z,9.91
2023-01-05T15:34:48.565Z,9.93
2023-01-05T15:37:22.717Z,9.97
2023-01-05T15:39:54.403Z,9.99
2023-01-05T15:42:33.918Z,10.01
2023-01-05T15:45:01.167Z,10.06
2023-01-05T15:47:30.044Z,10.12
2023-01-05T15:50:00.425Z,10.15
2023-01-05T15:52:39.646Z,10.17
2023-01-05T15:55:19.174Z,10.19
2023-01-05T15:58:07.031Z,10.21
2023-01-05T16:00:36.444Z,10.25
2023-01-05T16:03:27.337Z,10.25
2023-01-05T16:06:01.596Z,10.25
2023-01-05T16:08:31.179Z,10.27
2023-01-05T16:11:01.291Z,10.27
2023-01-05T16:13:54.130Z,10.25
2023-01-05T16:16:54.158Z,10.23
2023-01-05T16:19:37.318Z,10.16
2023-01-05T16:22:32.326Z,10.06
2023-01-05T16:25:31.752Z,9.96
2023-01-05T16:28:03.799Z,9.86
2023-01-05T16:30:38.289Z,9.77
2023-01-05T16:33:15.158Z,9.69
2023-01-05T16:35:47.589Z,9.65
2023-01-05T16:38:29.068Z,9.58
2023-01-05T16:41:14.242Z,9.51
2023-01-05T16:43:45.803Z,9.49
2023-01-05T16:46:23.896Z,9.49
2023-01-05T16:48:57.086Z,9.53
2023-01-05T16:51:45.409Z,9.59
2023-01-05T16:54:28.057Z,9.67
2023-01-05T16:57:01.300Z,9.71
2023-01-05T16:59:52.481Z,9.79
2023-01-05T17:02:49.120Z,9.87
2023-01-05T17:05:27.816Z,9.92
2023-01-05T17:08:22.693Z,9.94
2023-01-05T17:10:51.438Z,9.98
2023-01-05T17:13:21.662Z,10.01
2023-01-05T17:15:52.363Z,10.02
2023-01-05T17:18:28.613Z,10.04
2023-01-05T17:20:58.265Z,10.04
2023-01-05T17:23:48.744Z,10.07
2023-01-05T17:26:32.458Z,10.07
2023-01-05T17:31:30.147Z,10.11
2023-01-05T17:33:57.141Z,10.14
2023-01-05T17:36:29.970Z,10.17
2023-01-05T17:38:57.095Z,10.20
2023-01-05T17:41:24.119Z,10.20
2023-01-05T17:43:51.202Z,10.19
2023-01-05T17:46:28.760Z,10.17
2023-01-05T17:48:58.857Z,10.13
2023-01-05T17:51:28.079Z,10.12
2023-01-05T17:53:59.496Z,10.07
2023-01-05T17:56:26.829Z,10.05
2023-01-05T17:58:53.724Z,9.99
2023-01-05T18:01:21.028Z,9.96
2023-01-05T18:06:20.203Z,9.95
2023-01-05T18:08:47.203Z,9.96
2023-01-05T18:11:15.546Z,9.95
2023-01-05T18:16:12.648Z,10.00
2023-01-05T18:18:39.576Z,10.03
2023-01-05T18:21:07.381Z,10.04
2023-01-05T18:23:35.132Z,10.04
2023-01-05T18:26:08.742Z,10.05
2023-01-05T18:28:37.534Z,10.03
2023-01-05T18:31:15.865Z,10.01
2023-01-05T18:33:43.153Z,10.00
2023-01-05T18:36:15.833Z,10.01
2023-01-05T18:38:43.617Z,9.97
2023-01-05T18:41:12.781Z,9.97
2023-01-05T18:43:40.468Z,9.94
2023-01-05T18:46:07.952Z,9.91
2023-01-05T18:48:34.857Z,9.93
2023-01-05T18:51:07.840Z,9.94
2023-01-05T18:53:38.551Z,9.92
2023-01-05T18:56:08.552Z,9.91
2023-01-05T18:58:35.623Z,9.92
2023-01-05T19:01:13.219Z,9.89
2023-01-05T19:03:40.662Z,9.85
2023-01-05T19:06:20.196Z,9.85
2023-01-05T19:08:48.907Z,9.87
2023-01-05T19:11:22.155Z,9.88
2023-01-05T19:13:50.977Z,9.83
2023-01-05T19:16:21.010Z,9.80
2023-01-05T19:19:05.117Z,9.81
2023-01-05T19:21:34.802Z,9.81
2023-01-05T19:24:04.194Z,9.81
2023-01-05T19:26:33.369Z,9.77
2023-01-05T19:29:02.154Z,9.78
2023-01-05T19:31:30.282Z,9.73
2023-01-05T19:34:00.772Z,9.70
2023-01-05T19:36:32.457Z,9.70
2023-01-05T19:39:10.876Z,9.66
2023-01-05T19:41:39.927Z,9.63
2023-01-05T19:44:07.328Z,9.63
2023-01-05T19:46:36.477Z,9.64
2023-01-05T19:49:03.977Z,9.62
2023-01-05T19:51:31.820Z,9.60
2023-01-05T19:54:03.096Z,9.61
2023-01-05T19:56:35.187Z,9.63
2023-01-05T19:59:07.664Z,9.65
2023-01-05T20:01:37.290Z,9.65
2023-01-05T20:04:04.871Z,9.66
2023-01-05T20:06:36.803Z,9.68
2023-01-05T20:09:09.340Z,9.69
2023-01-05T20:11:39.685Z,9.72
2023-01-05T20:14:15.438Z,9.70
2023-01-05T20:17:05.787Z,9.70
2023-01-05T20:19:35.791Z,9.71
2023-01-05T20:22:07.567Z,9.72
2023-01-05T20:24:36.724Z,9.72
2023-01-05T20:27:12.110Z,9.73
2023-01-05T20:29:40.376Z,9.73
2023-01-05T20:32:16.052Z,9.74
2023-01-05T20:34:46.051Z,9.76
2023-01-05T20:37:13.469Z,9.73
2023-01-05T20:39:41.714Z,9.74
2023-01-05T20:42:11.479Z,9.73
2023-01-05T20:44:45.283Z,9.71
2023-01-05T20:47:15.134Z,9.72
2023-01-05T20:49:45.464Z,9.77
2023-01-05T20:52:15.888Z,9.76
2023-01-05T20:54:43.632Z,9.77
2023-01-05T20:57:12.080Z,9.81
2023-01-05T20:59:40.836Z,9.78
2023-01-05T21:02:22.356Z,9.82
2023-01-05T21:04:52.491Z,9.81
2023-01-05T21:07:20.348Z,9.84
2023-01-05T21:09:47.578Z,9.85
2023-01-05T21:12:14.495Z,9.85
2023-01-05T21:14:41.703Z,9.86
2023-01-05T21:17:09.036Z,9.87
2023-01-05T21:19:36.090Z,9.89
2023-01-05T21:22:03.550Z,9.91
2023-01-05T21:24:30.513Z,9.91
2023-01-05T21:26:57.616Z,9.90
2023-01-05T21:29:26.474Z,9.90
2023-01-05T21:31:56.920Z,9.93
2023-01-05T21:34:24.402Z,9.89
2023-01-05T21:36:52.288Z,9.91
2023-01-05T21:39:24.599Z,9.89
2023-01-05T21:42:12.028Z,9.88
2023-01-05T21:44:39.864Z,9.87
2023-01-05T21:47:07.923Z,9.86
2023-01-05T21:49:35.958Z,9.86
2023-01-05T21:52:22.901Z,9.86
2023-01-05T21:55:08.743Z,9.88
2023-01-05T21:57:35.786Z,9.89
2023-01-05T22:00:02.779Z,9.92
2023-01-05T22:02:32.247Z,9.91
2023-01-05T22:04:59.181Z,9.92
2023-01-05T22:07:26.320Z,9.93
2023-01-05T22:09:53.226Z,9.92
2023-01-05T22:12:20.284Z,9.91
2023-01-05T22:14:47.244Z,9.93
2023-01-05T22:17:14.469Z,9.94
2023-01-05T22:19:41.473Z,9.94
2023-01-05T22:22:08.449Z,9.93
2023-01-05T22:24:35.348Z,9.92
2023-01-05T22:27:02.435Z,9.92
2023-01-05T22:29:29.393Z,9.91
2023-01-05T22:31:58.066Z,9.90
2023-01-05T22:34:25.258Z,9.85
2023-01-05T22:36:53.262Z,9.85
2023-01-05T22:39:20.360Z,9.85
2023-01-05T22:41:49.825Z,9.84
2023-01-05T22:44:17.569Z,9.84
2023-01-05T22:46:44.755Z,9.81
2023-01-05T22:49:16.408Z,9.80
2023-01-05T22:51:44.717Z,9.77
2023-01-05T22:54:12.375Z,9.76
2023-01-05T22:56:40.005Z,9.72
2023-01-05T22:59:07.122Z,9.71
2023-01-05T23:01:37.648Z,9.70
2023-01-05T23:04:06.616Z,9.67
2023-01-05T23:06:33.951Z,9.68
2023-01-05T23:09:03.042Z,9.66
2023-01-05T23:11:34.723Z,9.67
2023-01-05T23:14:04.740Z,9.64
2023-01-05T23:16:33.913Z,9.63
2023-01-05T23:19:01.709Z,9.60
2023-01-05T23:21:28.971Z,9.57
2023-01-05T23:23:57.980Z,9.58
2023-01-05T23:26:26.724Z,9.56
2023-01-05T23:28:54.219Z,9.55
2023-01-05T23:31:21.783Z,9.53
2023-01-05T23:33:49.304Z,9.52
2023-01-05T23:36:18.748Z,9.51
2023-01-05T23:38:47.420Z,9.51
2023-01-05T23:41:16.472Z,9.51
2023-01-05T23:43:45.620Z,9.52
2023-01-05T23:46:20.208Z,9.51
2023-01-05T23:48:48.804Z,9.50
2023-01-05T23:51:16.983Z,9.54
2023-01-05T23:53:46.918Z,9.54
2023-01-05T23:56:26.707Z,9.54
2023-01-05T23:59:06.162Z,9.54
